sensor_id;sensor_type;location;lat;lon;timestamp;P1;durP1;ratioP1;P2;durP2;ratioP2
5428;SDS011;2737;52.386;9.980;2023-03-15T00:01:57;9.40;;;1.93;;
5428;SDS011;2737;52.386;9.980;2023-03-15T00:04:24;6.60;;;1.67;;
5428;SDS011;2737;52.386;9.980;2023-03-15T00:06:53;6.40;;;1.63;;
5428;SDS011;2737;52.386;9.980;2023-03-15T00:09:20;10.77;;;1.67;;
5428;SDS011;2737;52.386;9.980;2023-03-15T00:11:48;14.07;;;2.30;;
5428;SDS011;2737;52.386;9.980;2023-03-15T00:14:16;10.70;;;1.60;;
5428;SDS011;2737;52.386;9.980;2023-03-15T00:16:43;10.27;;;1.57;;
5428;SDS011;2737;52.386;9.980;2023-03-15T00:19:10;15.50;;;2.23;;
5428;SDS011;2737;52.386;9.980;2023-03-15T00:21:38;8.17;;;1.70;;
5428;SDS011;2737;52.386;9.980;2023-03-15T00:24:09;8.60;;;2.10;;
5428;SDS011;2737;52.386;9.980;2023-03-15T00:26:36;6.93;;;1.90;;
5428;SDS011;2737;52.386;9.980;2023-03-15T00:29:03;10.77;;;2.30;;
5428;SDS011;2737;52.386;9.980;2023-03-15T00:31:30;19.63;;;5.63;;
5428;SDS011;2737;52.386;9.980;2023-03-15T00:33:57;12.90;;;4.00;;
5428;SDS011;2737;52.386;9.980;2023-03-15T00:36:25;16.20;;;2.77;;
5428;SDS011;2737;52.386;9.980;2023-03-15T00:38:53;14.10;;;2.60;;
5428;SDS011;2737;52.386;9.980;2023-03-15T00:41:23;10.47;;;2.27;;
5428;SDS011;2737;52.386;9.980;2023-03-15T00:43:50;6.70;;;1.80;;
5428;SDS011;2737;52.386;9.980;2023-03-15T00:46:17;8.33;;;1.47;;
5428;SDS011;2737;52.386;9.980;2023-03-15T00:48:46;8.40;;;2.17;;
5428;SDS011;2737;52.386;9.980;2023-03-15T00:51:14;4.40;;;1.27;;
5428;SDS011;2737;52.386;9.980;2023-03-15T00:53:44;6.43;;;1.87;;
5428;SDS011;2737;52.386;9.980;2023-03-15T00:56:12;7.70;;;1.80;;
5428;SDS011;2737;52.386;9.980;2023-03-15T00:58:42;10.93;;;1.97;;
5428;SDS011;2737;52.386;9.980;2023-03-15T01:01:10;14.73;;;1.80;;
5428;SDS011;2737;52.386;9.980;2023-03-15T01:03:39;5.50;;;1.40;;
5428;SDS011;2737;52.386;9.980;2023-03-15T01:06:08;7.63;;;1.70;;
5428;SDS011;2737;52.386;9.980;2023-03-15T01:08:37;16.80;;;1.97;;
5428;SDS011;2737;52.386;9.980;2023-03-15T01:11:05;10.67;;;1.77;;
5428;SDS011;2737;52.386;9.980;2023-03-15T01:13:33;12.47;;;1.53;;
5428;SDS011;2737;52.386;9.980;2023-03-15T01:16:02;6.03;;;1.30;;
5428;SDS011;2737;52.386;9.980;2023-03-15T01:18:30;3.90;;;1.40;;
5428;SDS011;2737;52.386;9.980;2023-03-15T01:20:57;7.70;;;1.77;;
5428;SDS011;2737;52.386;9.980;2023-03-15T01:23:25;10.30;;;1.40;;
5428;SDS011;2737;52.386;9.980;2023-03-15T01:25:52;10.20;;;1.83;;
5428;SDS011;2737;52.386;9.980;2023-03-15T01:28:19;14.20;;;2.03;;
5428;SDS011;2737;52.386;9.980;2023-03-15T01:30:49;4.97;;;1.50;;
5428;SDS011;2737;52.386;9.980;2023-03-15T01:33:17;10.87;;;2.43;;
5428;SDS011;2737;52.386;9.980;2023-03-15T01:35:45;7.87;;;1.90;;
5428;SDS011;2737;52.386;9.980;2023-03-15T01:38:13;10.63;;;1.67;;
5428;SDS011;2737;52.386;9.980;2023-03-15T01:40:40;10.97;;;1.90;;
5428;SDS011;2737;52.386;9.980;2023-03-15T01:43:13;10.53;;;2.40;;
5428;SDS011;2737;52.386;9.980;2023-03-15T01:48:31;7.17;;;1.97;;
5428;SDS011;2737;52.386;9.980;2023-03-15T01:51:02;11.73;;;1.67;;
5428;SDS011;2737;52.386;9.980;2023-03-15T01:53:33;15.80;;;2.00;;
5428;SDS011;2737;52.386;9.980;2023-03-15T01:56:01;5.87;;;1.63;;
5428;SDS011;2737;52.386;9.980;2023-03-15T01:58:29;9.43;;;2.20;;
5428;SDS011;2737;52.386;9.980;2023-03-15T02:00:56;11.43;;;2.00;;
5428;SDS011;2737;52.386;9.980;2023-03-15T02:03:24;13.13;;;2.13;;
5428;SDS011;2737;52.386;9.980;2023-03-15T02:05:57;5.90;;;1.27;;
5428;SDS011;2737;52.386;9.980;2023-03-15T02:08:28;7.43;;;1.53;;
5428;SDS011;2737;52.386;9.980;2023-03-15T02:10:58;3.73;;;1.30;;
5428;SDS011;2737;52.386;9.980;2023-03-15T02:13:29;10.57;;;1.67;;
5428;SDS011;2737;52.386;9.980;2023-03-15T02:15:58;6.80;;;2.00;;
5428;SDS011;2737;52.386;9.980;2023-03-15T02:18:25;7.50;;;2.07;;
5428;SDS011;2737;52.386;9.980;2023-03-15T02:20:55;9.03;;;2.40;;
5428;SDS011;2737;52.386;9.980;2023-03-15T02:23:29;13.00;;;1.70;;
5428;SDS011;2737;52.386;9.980;2023-03-15T02:25:58;6.43;;;1.57;;
5428;SDS011;2737;52.386;9.980;2023-03-15T02:28:35;2.70;;;1.63;;
5428;SDS011;2737;52.386;9.980;2023-03-15T02:31:03;2.77;;;1.50;;
5428;SDS011;2737;52.386;9.980;2023-03-15T02:33:31;17.57;;;2.60;;
5428;SDS011;2737;52.386;9.980;2023-03-15T02:36:06;5.70;;;1.97;;
5428;SDS011;2737;52.386;9.980;2023-03-15T02:38:35;3.73;;;1.40;;
5428;SDS011;2737;52.386;9.980;2023-03-15T02:41:02;6.67;;;2.07;;
5428;SDS011;2737;52.386;9.980;2023-03-15T02:43:30;10.03;;;1.90;;
5428;SDS011;2737;52.386;9.980;2023-03-15T02:46:00;7.23;;;1.50;;
5428;SDS011;2737;52.386;9.980;2023-03-15T02:48:29;14.00;;;1.90;;
5428;SDS011;2737;52.386;9.980;2023-03-15T02:50:59;4.73;;;1.33;;
5428;SDS011;2737;52.386;9.980;2023-03-15T02:53:27;11.03;;;1.53;;
5428;SDS011;2737;52.386;9.980;2023-03-15T02:55:55;11.00;;;2.13;;
5428;SDS011;2737;52.386;9.980;2023-03-15T02:58:22;15.23;;;2.30;;
5428;SDS011;2737;52.386;9.980;2023-03-15T03:00:51;9.10;;;1.60;;
5428;SDS011;2737;52.386;9.980;2023-03-15T03:03:20;12.80;;;1.50;;
5428;SDS011;2737;52.386;9.980;2023-03-15T03:05:47;14.80;;;2.33;;
5428;SDS011;2737;52.386;9.980;2023-03-15T03:08:14;9.83;;;1.33;;
5428;SDS011;2737;52.386;9.980;2023-03-15T03:10:41;4.97;;;1.60;;
5428;SDS011;2737;52.386;9.980;2023-03-15T03:13:08;10.93;;;2.50;;
5428;SDS011;2737;52.386;9.980;2023-03-15T03:15:35;12.83;;;1.73;;
5428;SDS011;2737;52.386;9.980;2023-03-15T03:18:02;6.67;;;2.03;;
5428;SDS011;2737;52.386;9.980;2023-03-15T03:20:31;7.30;;;2.27;;
5428;SDS011;2737;52.386;9.980;2023-03-15T03:22:58;9.00;;;1.40;;
5428;SDS011;2737;52.386;9.980;2023-03-15T03:25:29;13.50;;;1.97;;
5428;SDS011;2737;52.386;9.980;2023-03-15T03:27:57;3.93;;;1.37;;
5428;SDS011;2737;52.386;9.980;2023-03-15T03:30:28;6.13;;;2.00;;
5428;SDS011;2737;52.386;9.980;2023-03-15T03:32:56;7.53;;;1.77;;
5428;SDS011;2737;52.386;9.980;2023-03-15T03:35:23;7.30;;;1.80;;
5428;SDS011;2737;52.386;9.980;2023-03-15T03:37:52;9.63;;;1.50;;
5428;SDS011;2737;52.386;9.980;2023-03-15T03:40:19;14.27;;;1.70;;
5428;SDS011;2737;52.386;9.980;2023-03-15T03:42:46;6.37;;;1.67;;
5428;SDS011;2737;52.386;9.980;2023-03-15T03:45:13;8.27;;;2.10;;
5428;SDS011;2737;52.386;9.980;2023-03-15T03:47:40;5.67;;;1.60;;
5428;SDS011;2737;52.386;9.980;2023-03-15T03:50:08;5.07;;;1.63;;
5428;SDS011;2737;52.386;9.980;2023-03-15T03:52:36;15.10;;;2.50;;
5428;SDS011;2737;52.386;9.980;2023-03-15T03:55:05;14.90;;;2.53;;
5428;SDS011;2737;52.386;9.980;2023-03-15T03:57:32;13.10;;;2.33;;
5428;SDS011;2737;52.386;9.980;2023-03-15T03:59:59;13.60;;;2.67;;
5428;SDS011;2737;52.386;9.980;2023-03-15T04:02:26;9.50;;;2.00;;
5428;SDS011;2737;52.386;9.980;2023-03-15T04:04:53;13.37;;;2.90;;
5428;SDS011;2737;52.386;9.980;2023-03-15T04:07:20;8.63;;;2.20;;
5428;SDS011;2737;52.386;9.980;2023-03-15T04:09:47;7.13;;;2.93;;
5428;SDS011;2737;52.386;9.980;2023-03-15T04:12:16;6.37;;;1.93;;
5428;SDS011;2737;52.386;9.980;2023-03-15T04:14:43;7.40;;;2.27;;
5428;SDS011;2737;52.386;9.980;2023-03-15T04:17:10;9.23;;;2.50;;
5428;SDS011;2737;52.386;9.980;2023-03-15T04:19:37;9.30;;;2.20;;
5428;SDS011;2737;52.386;9.980;2023-03-15T04:22:04;6.50;;;2.40;;
5428;SDS011;2737;52.386;9.980;2023-03-15T04:24:32;6.03;;;2.30;;
5428;SDS011;2737;52.386;9.980;2023-03-15T04:26:59;6.43;;;2.33;;
5428;SDS011;2737;52.386;9.980;2023-03-15T04:29:29;11.30;;;2.67;;
5428;SDS011;2737;52.386;9.980;2023-03-15T04:31:56;7.97;;;2.67;;
5428;SDS011;2737;52.386;9.980;2023-03-15T04:34:26;8.90;;;2.33;;
5428;SDS011;2737;52.386;9.980;2023-03-15T04:36:53;7.63;;;3.30;;
5428;SDS011;2737;52.386;9.980;2023-03-15T04:39:21;6.10;;;3.00;;
5428;SDS011;2737;52.386;9.980;2023-03-15T04:41:48;4.63;;;2.50;;
5428;SDS011;2737;52.386;9.980;2023-03-15T04:44:15;6.97;;;2.70;;
5428;SDS011;2737;52.386;9.980;2023-03-15T04:46:44;8.03;;;3.10;;
5428;SDS011;2737;52.386;9.980;2023-03-15T04:49:11;10.90;;;2.83;;
5428;SDS011;2737;52.386;9.980;2023-03-15T04:51:39;5.87;;;3.37;;
5428;SDS011;2737;52.386;9.980;2023-03-15T04:54:05;10.40;;;3.30;;
5428;SDS011;2737;52.386;9.980;2023-03-15T04:56:32;9.20;;;2.70;;
5428;SDS011;2737;52.386;9.980;2023-03-15T04:59:00;10.70;;;3.83;;
5428;SDS011;2737;52.386;9.980;2023-03-15T05:01:28;10.63;;;2.97;;
5428;SDS011;2737;52.386;9.980;2023-03-15T05:03:58;7.10;;;3.10;;
5428;SDS011;2737;52.386;9.980;2023-03-15T05:06:25;8.00;;;3.30;;
5428;SDS011;2737;52.386;9.980;2023-03-15T05:08:52;20.43;;;3.83;;
5428;SDS011;2737;52.386;9.980;2023-03-15T05:11:19;9.83;;;3.03;;
5428;SDS011;2737;52.386;9.980;2023-03-15T05:13:47;10.23;;;3.37;;
5428;SDS011;2737;52.386;9.980;2023-03-15T05:16:14;7.77;;;3.17;;
5428;SDS011;2737;52.386;9.980;2023-03-15T05:18:41;5.27;;;3.37;;
5428;SDS011;2737;52.386;9.980;2023-03-15T05:21:10;8.40;;;3.20;;
5428;SDS011;2737;52.386;9.980;2023-03-15T05:23:38;8.63;;;3.50;;
5428;SDS011;2737;52.386;9.980;2023-03-15T05:26:05;8.40;;;3.43;;
5428;SDS011;2737;52.386;9.980;2023-03-15T05:28:32;7.40;;;3.57;;
5428;SDS011;2737;52.386;9.980;2023-03-15T05:30:59;9.80;;;3.80;;
5428;SDS011;2737;52.386;9.980;2023-03-15T05:33:27;10.97;;;3.50;;
5428;SDS011;2737;52.386;9.980;2023-03-15T05:35:55;6.83;;;3.23;;
5428;SDS011;2737;52.386;9.980;2023-03-15T05:38:24;9.57;;;3.30;;
5428;SDS011;2737;52.386;9.980;2023-03-15T05:40:51;9.73;;;2.93;;
5428;SDS011;2737;52.386;9.980;2023-03-15T05:43:18;11.90;;;3.40;;
5428;SDS011;2737;52.386;9.980;2023-03-15T05:45:46;5.93;;;3.50;;
5428;SDS011;2737;52.386;9.980;2023-03-15T05:48:13;6.20;;;2.93;;
5428;SDS011;2737;52.386;9.980;2023-03-15T05:50:40;6.73;;;3.70;;
5428;SDS011;2737;52.386;9.980;2023-03-15T05:53:07;14.63;;;4.10;;
5428;SDS011;2737;52.386;9.980;2023-03-15T05:55:36;4.97;;;3.03;;
5428;SDS011;2737;52.386;9.980;2023-03-15T05:58:03;11.63;;;3.70;;
5428;SDS011;2737;52.386;9.980;2023-03-15T06:00:30;10.07;;;3.43;;
5428;SDS011;2737;52.386;9.980;2023-03-15T06:02:58;6.07;;;3.40;;
5428;SDS011;2737;52.386;9.980;2023-03-15T06:05:25;6.70;;;3.23;;
5428;SDS011;2737;52.386;9.980;2023-03-15T06:07:52;8.03;;;4.03;;
5428;SDS011;2737;52.386;9.980;2023-03-15T06:10:19;7.23;;;3.57;;
5428;SDS011;2737;52.386;9.980;2023-03-15T06:12:48;6.33;;;3.30;;
5428;SDS011;2737;52.386;9.980;2023-03-15T06:15:16;9.77;;;4.20;;
5428;SDS011;2737;52.386;9.980;2023-03-15T06:17:44;8.30;;;3.10;;
5428;SDS011;2737;52.386;9.980;2023-03-15T06:20:11;3.77;;;3.20;;
5428;SDS011;2737;52.386;9.980;2023-03-15T06:22:38;12.60;;;4.40;;
5428;SDS011;2737;52.386;9.980;2023-03-15T06:25:06;11.50;;;3.77;;
5428;SDS011;2737;52.386;9.980;2023-03-15T06:27:34;6.70;;;3.70;;
5428;SDS011;2737;52.386;9.980;2023-03-15T06:30:03;7.00;;;4.07;;
5428;SDS011;2737;52.386;9.980;2023-03-15T06:32:31;7.47;;;3.97;;
5428;SDS011;2737;52.386;9.980;2023-03-15T06:34:58;6.30;;;4.13;;
5428;SDS011;2737;52.386;9.980;2023-03-15T06:37:25;11.10;;;5.10;;
5428;SDS011;2737;52.386;9.980;2023-03-15T06:39:52;6.23;;;3.80;;
5428;SDS011;2737;52.386;9.980;2023-03-15T06:42:19;7.70;;;4.13;;
5428;SDS011;2737;52.386;9.980;2023-03-15T06:44:46;6.80;;;3.70;;
5428;SDS011;2737;52.386;9.980;2023-03-15T06:47:14;7.63;;;4.60;;
5428;SDS011;2737;52.386;9.980;2023-03-15T06:49:41;9.43;;;4.37;;
5428;SDS011;2737;52.386;9.980;2023-03-15T06:52:08;11.63;;;5.60;;
5428;SDS011;2737;52.386;9.980;2023-03-15T06:54:36;13.13;;;4.47;;
5428;SDS011;2737;52.386;9.980;2023-03-15T06:57:03;11.60;;;4.83;;
5428;SDS011;2737;52.386;9.980;2023-03-15T06:59:30;16.20;;;4.60;;
5428;SDS011;2737;52.386;9.980;2023-03-15T07:01:57;10.77;;;4.37;;
5428;SDS011;2737;52.386;9.980;2023-03-15T07:04:25;13.73;;;3.70;;
5428;SDS011;2737;52.386;9.980;2023-03-15T07:06:52;9.73;;;3.10;;
5428;SDS011;2737;52.386;9.980;2023-03-15T07:09:19;9.03;;;4.23;;
5428;SDS011;2737;52.386;9.980;2023-03-15T07:11:46;6.63;;;4.07;;
5428;SDS011;2737;52.386;9.980;2023-03-15T07:14:13;10.20;;;4.10;;
5428;SDS011;2737;52.386;9.980;2023-03-15T07:16:40;7.33;;;4.43;;
5428;SDS011;2737;52.386;9.980;2023-03-15T07:19:08;9.43;;;4.23;;
5428;SDS011;2737;52.386;9.980;2023-03-15T07:21:36;16.53;;;4.67;;
5428;SDS011;2737;52.386;9.980;2023-03-15T07:24:03;10.23;;;4.70;;
5428;SDS011;2737;52.386;9.980;2023-03-15T07:26:31;7.47;;;3.73;;
5428;SDS011;2737;52.386;9.980;2023-03-15T07:28:58;12.53;;;5.10;;
5428;SDS011;2737;52.386;9.980;2023-03-15T07:31:25;10.37;;;5.97;;
5428;SDS011;2737;52.386;9.980;2023-03-15T07:33:52;12.33;;;6.33;;
5428;SDS011;2737;52.386;9.980;2023-03-15T07:36:19;14.40;;;6.57;;
5428;SDS011;2737;52.386;9.980;2023-03-15T07:38:48;17.43;;;7.97;;
5428;SDS011;2737;52.386;9.980;2023-03-15T07:41:15;12.50;;;6.60;;
5428;SDS011;2737;52.386;9.980;2023-03-15T07:43:42;16.13;;;6.83;;
5428;SDS011;2737;52.386;9.980;2023-03-15T07:46:09;21.17;;;8.90;;
5428;SDS011;2737;52.386;9.980;2023-03-15T07:48:36;9.03;;;5.73;;
5428;SDS011;2737;52.386;9.980;2023-03-15T07:51:03;28.10;;;7.50;;
5428;SDS011;2737;52.386;9.980;2023-03-15T07:53:31;9.27;;;5.67;;
5428;SDS011;2737;52.386;9.980;2023-03-15T07:55:59;9.80;;;5.60;;
5428;SDS011;2737;52.386;9.980;2023-03-15T07:58:26;12.90;;;5.97;;
5428;SDS011;2737;52.386;9.980;2023-03-15T08:00:54;22.53;;;5.13;;
5428;SDS011;2737;52.386;9.980;2023-03-15T08:03:21;9.47;;;5.90;;
5428;SDS011;2737;52.386;9.980;2023-03-15T08:05:50;14.00;;;6.53;;
5428;SDS011;2737;52.386;9.980;2023-03-15T08:08:18;14.67;;;6.83;;
5428;SDS011;2737;52.386;9.980;2023-03-15T08:10:45;11.67;;;5.93;;
5428;SDS011;2737;52.386;9.980;2023-03-15T08:13:13;10.47;;;6.90;;
5428;SDS011;2737;52.386;9.980;2023-03-15T08:15:40;8.87;;;5.37;;
5428;SDS011;2737;52.386;9.980;2023-03-15T08:18:10;10.23;;;5.10;;
5428;SDS011;2737;52.386;9.980;2023-03-15T08:20:37;7.30;;;4.77;;
5428;SDS011;2737;52.386;9.980;2023-03-15T08:23:04;7.03;;;5.13;;
5428;SDS011;2737;52.386;9.980;2023-03-15T08:25:33;9.90;;;5.10;;
5428;SDS011;2737;52.386;9.980;2023-03-15T08:28:04;7.23;;;3.67;;
5428;SDS011;2737;52.386;9.980;2023-03-15T08:30:33;8.50;;;3.70;;
5428;SDS011;2737;52.386;9.980;2023-03-15T08:33:00;7.83;;;4.30;;
5428;SDS011;2737;52.386;9.980;2023-03-15T08:35:27;8.23;;;5.37;;
5428;SDS011;2737;52.386;9.980;2023-03-15T08:37:55;8.10;;;5.10;;
5428;SDS011;2737;52.386;9.980;2023-03-15T08:40:22;7.77;;;5.10;;
5428;SDS011;2737;52.386;9.980;2023-03-15T08:42:49;11.00;;;5.70;;
5428;SDS011;2737;52.386;9.980;2023-03-15T08:45:16;15.30;;;5.20;;
5428;SDS011;2737;52.386;9.980;2023-03-15T08:47:45;10.33;;;6.53;;
5428;SDS011;2737;52.386;9.980;2023-03-15T08:50:13;13.83;;;5.90;;
5428;SDS011;2737;52.386;9.980;2023-03-15T08:52:41;5.40;;;3.10;;
5428;SDS011;2737;52.386;9.980;2023-03-15T08:55:09;8.00;;;3.67;;
5428;SDS011;2737;52.386;9.980;2023-03-15T08:57:38;6.60;;;2.90;;
5428;SDS011;2737;52.386;9.980;2023-03-15T09:00:06;10.17;;;3.43;;
5428;SDS011;2737;52.386;9.980;2023-03-15T09:02:34;9.47;;;3.80;;
5428;SDS011;2737;52.386;9.980;2023-03-15T09:05:02;5.10;;;2.90;;
5428;SDS011;2737;52.386;9.980;2023-03-15T09:07:31;5.97;;;3.57;;
5428;SDS011;2737;52.386;9.980;2023-03-15T09:09:58;10.20;;;3.40;;
5428;SDS011;2737;52.386;9.980;2023-03-15T09:12:25;7.00;;;3.37;;
5428;SDS011;2737;52.386;9.980;2023-03-15T09:14:52;8.70;;;2.83;;
5428;SDS011;2737;52.386;9.980;2023-03-15T09:17:19;11.63;;;2.50;;
5428;SDS011;2737;52.386;9.980;2023-03-15T09:19:46;6.80;;;2.50;;
5428;SDS011;2737;52.386;9.980;2023-03-15T09:22:15;6.30;;;2.37;;
5428;SDS011;2737;52.386;9.980;2023-03-15T09:24:42;8.67;;;1.93;;
5428;SDS011;2737;52.386;9.980;2023-03-15T09:27:09;8.40;;;2.70;;
5428;SDS011;2737;52.386;9.980;2023-03-15T09:29:36;6.73;;;1.50;;
5428;SDS011;2737;52.386;9.980;2023-03-15T09:32:04;15.47;;;2.13;;
5428;SDS011;2737;52.386;9.980;2023-03-15T09:34:31;11.30;;;1.97;;
5428;SDS011;2737;52.386;9.980;2023-03-15T09:37:00;13.60;;;2.07;;
5428;SDS011;2737;52.386;9.980;2023-03-15T09:39:29;8.10;;;2.10;;
5428;SDS011;2737;52.386;9.980;2023-03-15T09:41:57;7.47;;;1.80;;
5428;SDS011;2737;52.386;9.980;2023-03-15T09:44:31;9.07;;;1.80;;
5428;SDS011;2737;52.386;9.980;2023-03-15T09:47:08;7.07;;;2.10;;
5428;SDS011;2737;52.386;9.980;2023-03-15T09:49:54;6.17;;;1.57;;
5428;SDS011;2737;52.386;9.980;2023-03-15T09:52:31;10.60;;;1.50;;
5428;SDS011;2737;52.386;9.980;2023-03-15T09:55:04;13.13;;;2.70;;
5428;SDS011;2737;52.386;9.980;2023-03-15T09:57:38;9.83;;;1.67;;
5428;SDS011;2737;52.386;9.980;2023-03-15T10:00:10;7.77;;;1.90;;
5428;SDS011;2737;52.386;9.980;2023-03-15T10:02:41;9.20;;;2.13;;
5428;SDS011;2737;52.386;9.980;2023-03-15T10:05:15;9.50;;;1.60;;
5428;SDS011;2737;52.386;9.980;2023-03-15T10:07:46;15.77;;;2.03;;
5428;SDS011;2737;52.386;9.980;2023-03-15T10:10:16;11.03;;;2.80;;
5428;SDS011;2737;52.386;9.980;2023-03-15T10:12:45;5.63;;;1.30;;
5428;SDS011;2737;52.386;9.980;2023-03-15T10:15:21;9.63;;;1.93;;
5428;SDS011;2737;52.386;9.980;2023-03-15T10:18:00;6.40;;;2.23;;
5428;SDS011;2737;52.386;9.980;2023-03-15T10:20:39;4.63;;;1.40;;
5428;SDS011;2737;52.386;9.980;2023-03-15T10:23:10;8.30;;;1.40;;
5428;SDS011;2737;52.386;9.980;2023-03-15T10:25:43;7.93;;;1.67;;
5428;SDS011;2737;52.386;9.980;2023-03-15T10:28:12;8.83;;;1.70;;
5428;SDS011;2737;52.386;9.980;2023-03-15T10:30:46;11.70;;;1.50;;
5428;SDS011;2737;52.386;9.980;2023-03-15T10:33:18;8.37;;;1.37;;
5428;SDS011;2737;52.386;9.980;2023-03-15T10:35:53;8.67;;;1.63;;
5428;SDS011;2737;52.386;9.980;2023-03-15T10:38:21;11.77;;;1.40;;
5428;SDS011;2737;52.386;9.980;2023-03-15T10:40:52;3.47;;;1.13;;
5428;SDS011;2737;52.386;9.980;2023-03-15T10:43:21;6.97;;;1.70;;
5428;SDS011;2737;52.386;9.980;2023-03-15T10:45:59;11.83;;;1.77;;
5428;SDS011;2737;52.386;9.980;2023-03-15T10:48:28;4.97;;;1.33;;
5428;SDS011;2737;52.386;9.980;2023-03-15T10:50:56;4.17;;;0.90;;
5428;SDS011;2737;52.386;9.980;2023-03-15T10:53:28;8.53;;;1.20;;
5428;SDS011;2737;52.386;9.980;2023-03-15T10:56:00;18.27;;;1.10;;
5428;SDS011;2737;52.386;9.980;2023-03-15T10:58:38;8.30;;;1.50;;
5428;SDS011;2737;52.386;9.980;2023-03-15T11:01:07;4.50;;;0.90;;
5428;SDS011;2737;52.386;9.980;2023-03-15T11:03:39;4.13;;;1.30;;
5428;SDS011;2737;52.386;9.980;2023-03-15T11:06:17;4.30;;;1.30;;
5428;SDS011;2737;52.386;9.980;2023-03-15T11:08:46;3.20;;;0.93;;
5428;SDS011;2737;52.386;9.980;2023-03-15T11:11:15;6.83;;;1.90;;
5428;SDS011;2737;52.386;9.980;2023-03-15T11:13:43;8.47;;;1.73;;
5428;SDS011;2737;52.386;9.980;2023-03-15T11:16:23;5.33;;;1.60;;
5428;SDS011;2737;52.386;9.980;2023-03-15T11:18:51;4.37;;;1.23;;
5428;SDS011;2737;52.386;9.980;2023-03-15T11:21:25;5.33;;;1.30;;
5428;SDS011;2737;52.386;9.980;2023-03-15T11:23:57;6.63;;;1.07;;
5428;SDS011;2737;52.386;9.980;2023-03-15T11:26:27;4.87;;;1.07;;
5428;SDS011;2737;52.386;9.980;2023-03-15T11:29:01;3.07;;;1.10;;
5428;SDS011;2737;52.386;9.980;2023-03-15T11:31:31;5.67;;;1.30;;
5428;SDS011;2737;52.386;9.980;2023-03-15T11:34:02;5.63;;;1.13;;
5428;SDS011;2737;52.386;9.980;2023-03-15T11:36:32;1.83;;;0.90;;
5428;SDS011;2737;52.386;9.980;2023-03-15T11:39:05;4.60;;;1.13;;
5428;SDS011;2737;52.386;9.980;2023-03-15T11:41:39;5.87;;;1.50;;
5428;SDS011;2737;52.386;9.980;2023-03-15T11:44:12;7.83;;;1.30;;
5428;SDS011;2737;52.386;9.980;2023-03-15T11:46:46;5.23;;;1.33;;
5428;SDS011;2737;52.386;9.980;2023-03-15T11:49:16;8.70;;;1.60;;
5428;SDS011;2737;52.386;9.980;2023-03-15T11:51:50;10.73;;;1.63;;
5428;SDS011;2737;52.386;9.980;2023-03-15T11:54:21;6.43;;;1.30;;
5428;SDS011;2737;52.386;9.980;2023-03-15T11:56:52;4.53;;;1.23;;
5428;SDS011;2737;52.386;9.980;2023-03-15T11:59:24;2.70;;;1.40;;
5428;SDS011;2737;52.386;9.980;2023-03-15T12:01:55;2.10;;;1.10;;
5428;SDS011;2737;52.386;9.980;2023-03-15T12:10:31;4.63;;;1.20;;
5428;SDS011;2737;52.386;9.980;2023-03-15T12:13:17;6.37;;;1.70;;
5428;SDS011;2737;52.386;9.980;2023-03-15T12:15:49;3.07;;;1.53;;
5428;SDS011;2737;52.386;9.980;2023-03-15T12:18:21;5.30;;;1.30;;
5428;SDS011;2737;52.386;9.980;2023-03-15T12:21:05;3.17;;;1.20;;
5428;SDS011;2737;52.386;9.980;2023-03-15T12:23:48;4.67;;;1.37;;
5428;SDS011;2737;52.386;9.980;2023-03-15T12:26:25;8.13;;;1.40;;
5428;SDS011;2737;52.386;9.980;2023-03-15T12:29:19;6.83;;;1.17;;
5428;SDS011;2737;52.386;9.980;2023-03-15T12:31:53;1.90;;;0.80;;
5428;SDS011;2737;52.386;9.980;2023-03-15T12:37:18;7.10;;;1.27;;
5428;SDS011;2737;52.386;9.980;2023-03-15T12:39:48;4.83;;;1.30;;
5428;SDS011;2737;52.386;9.980;2023-03-15T12:45:38;7.33;;;0.97;;
5428;SDS011;2737;52.386;9.980;2023-03-15T12:51:10;3.10;;;1.00;;
5428;SDS011;2737;52.386;9.980;2023-03-15T12:53:44;3.20;;;1.17;;
5428;SDS011;2737;52.386;9.980;2023-03-15T12:59:18;9.40;;;1.23;;
5428;SDS011;2737;52.386;9.980;2023-03-15T13:01:52;7.50;;;1.43;;
5428;SDS011;2737;52.386;9.980;2023-03-15T13:04:20;2.97;;;1.13;;
5428;SDS011;2737;52.386;9.980;2023-03-15T13:06:54;2.83;;;0.80;;
5428;SDS011;2737;52.386;9.980;2023-03-15T13:12:23;4.23;;;0.80;;
5428;SDS011;2737;52.386;9.980;2023-03-15T13:14:55;3.47;;;0.83;;
5428;SDS011;2737;52.386;9.980;2023-03-15T13:17:33;3.40;;;0.70;;
5428;SDS011;2737;52.386;9.980;2023-03-15T13:20:10;3.37;;;0.97;;
5428;SDS011;2737;52.386;9.980;2023-03-15T13:22:46;1.20;;;0.60;;
5428;SDS011;2737;52.386;9.980;2023-03-15T13:25:21;0.80;;;0.70;;
5428;SDS011;2737;52.386;9.980;2023-03-15T13:27:55;2.23;;;0.83;;
5428;SDS011;2737;52.386;9.980;2023-03-15T13:30:29;0.97;;;0.63;;
5428;SDS011;2737;52.386;9.980;2023-03-15T13:33:09;1.33;;;0.53;;
5428;SDS011;2737;52.386;9.980;2023-03-15T13:35:44;1.93;;;0.60;;
5428;SDS011;2737;52.386;9.980;2023-03-15T13:38:23;1.40;;;0.70;;
5428;SDS011;2737;52.386;9.980;2023-03-15T13:40:53;2.10;;;0.60;;
5428;SDS011;2737;52.386;9.980;2023-03-15T13:43:23;1.53;;;0.50;;
5428;SDS011;2737;52.386;9.980;2023-03-15T13:45:55;0.40;;;0.40;;
5428;SDS011;2737;52.386;9.980;2023-03-15T13:48:29;2.30;;;0.90;;
5428;SDS011;2737;52.386;9.980;2023-03-15T13:51:00;6.07;;;0.73;;
5428;SDS011;2737;52.386;9.980;2023-03-15T13:53:31;1.07;;;0.70;;
5428;SDS011;2737;52.386;9.980;2023-03-15T13:56:00;1.23;;;0.60;;
5428;SDS011;2737;52.386;9.980;2023-03-15T13:58:31;1.50;;;0.80;;
5428;SDS011;2737;52.386;9.980;2023-03-15T14:00:59;4.20;;;0.67;;
5428;SDS011;2737;52.386;9.980;2023-03-15T14:03:31;4.23;;;0.90;;
5428;SDS011;2737;52.386;9.980;2023-03-15T14:05:58;1.87;;;0.60;;
5428;SDS011;2737;52.386;9.980;2023-03-15T14:08:26;3.20;;;0.80;;
5428;SDS011;2737;52.386;9.980;2023-03-15T14:10:57;1.10;;;0.53;;
5428;SDS011;2737;52.386;9.980;2023-03-15T14:13:30;3.70;;;0.80;;
5428;SDS011;2737;52.386;9.980;2023-03-15T14:16:00;2.97;;;0.80;;
5428;SDS011;2737;52.386;9.980;2023-03-15T14:18:29;2.00;;;0.77;;
5428;SDS011;2737;52.386;9.980;2023-03-15T14:21:04;1.70;;;0.60;;
5428;SDS011;2737;52.386;9.980;2023-03-15T14:23:34;1.23;;;0.67;;
5428;SDS011;2737;52.386;9.980;2023-03-15T14:26:06;2.67;;;0.70;;
5428;SDS011;2737;52.386;9.980;2023-03-15T14:28:38;4.00;;;1.07;;
5428;SDS011;2737;52.386;9.980;2023-03-15T14:31:06;9.00;;;0.80;;
5428;SDS011;2737;52.386;9.980;2023-03-15T14:33:35;2.83;;;1.33;;
5428;SDS011;2737;52.386;9.980;2023-03-15T14:36:05;0.70;;;0.60;;
5428;SDS011;2737;52.386;9.980;2023-03-15T14:38:35;0.60;;;0.57;;
5428;SDS011;2737;52.386;9.980;2023-03-15T14:41:17;3.77;;;0.80;;
5428;SDS011;2737;52.386;9.980;2023-03-15T14:43:49;9.23;;;0.80;;
5428;SDS011;2737;52.386;9.980;2023-03-15T14:46:16;3.03;;;0.60;;
5428;SDS011;2737;52.386;9.980;2023-03-15T14:48:44;5.30;;;0.80;;
5428;SDS011;2737;52.386;9.980;2023-03-15T14:51:12;2.50;;;1.00;;
5428;SDS011;2737;52.386;9.980;2023-03-15T14:53:41;3.50;;;0.80;;
5428;SDS011;2737;52.386;9.980;2023-03-15T14:56:10;1.70;;;0.80;;
5428;SDS011;2737;52.386;9.980;2023-03-15T14:58:38;3.90;;;1.03;;
5428;SDS011;2737;52.386;9.980;2023-03-15T15:01:06;3.57;;;0.90;;
5428;SDS011;2737;52.386;9.980;2023-03-15T15:03:35;3.10;;;0.70;;
5428;SDS011;2737;52.386;9.980;2023-03-15T15:06:07;4.93;;;1.13;;
5428;SDS011;2737;52.386;9.980;2023-03-15T15:08:37;4.30;;;0.97;;
5428;SDS011;2737;52.386;9.980;2023-03-15T15:11:06;5.33;;;0.90;;
5428;SDS011;2737;52.386;9.980;2023-03-15T15:13:34;1.60;;;1.10;;
5428;SDS011;2737;52.386;9.980;2023-03-15T15:16:01;7.63;;;1.40;;
5428;SDS011;2737;52.386;9.980;2023-03-15T15:18:29;2.63;;;1.07;;
5428;SDS011;2737;52.386;9.980;2023-03-15T15:20:58;4.20;;;0.80;;
5428;SDS011;2737;52.386;9.980;2023-03-15T15:23:28;6.03;;;1.00;;
5428;SDS011;2737;52.386;9.980;2023-03-15T15:25:57;6.60;;;0.80;;
5428;SDS011;2737;52.386;9.980;2023-03-15T15:28:26;2.80;;;0.97;;
5428;SDS011;2737;52.386;9.980;2023-03-15T15:30:54;5.50;;;1.40;;
5428;SDS011;2737;52.386;9.980;2023-03-15T15:33:22;2.10;;;0.70;;
5428;SDS011;2737;52.386;9.980;2023-03-15T15:35:49;3.47;;;1.07;;
5428;SDS011;2737;52.386;9.980;2023-03-15T15:38:18;4.67;;;1.17;;
5428;SDS011;2737;52.386;9.980;2023-03-15T15:40:46;2.43;;;0.97;;
5428;SDS011;2737;52.386;9.980;2023-03-15T15:43:13;2.37;;;0.97;;
5428;SDS011;2737;52.386;9.980;2023-03-15T15:45:40;2.57;;;1.00;;
5428;SDS011;2737;52.386;9.980;2023-03-15T15:48:07;7.60;;;0.90;;
5428;SDS011;2737;52.386;9.980;2023-03-15T15:50:35;1.80;;;0.93;;